Time;durP1;ratioP1;P1;durP2;ratioP2;P2;SDS_P1;SDS_P2;PMS_P1;PMS_P2;Temp;Humidity;BMP_temperature;BMP_pressure;BME280_temperature;BME280_humidity;BME280_pressure;Samples;Min_cycle;Max_cycle;Signal;HPM_P1;HPM_P2
2023/07/21 00:01:37;;;;;;;5.50;4.50;;;;;;;17.89;83.85;101153.59;5274014;28;20024;-76
2023/07/21 00:04:09;;;;;;;4.53;4.13;;;;;;;17.82;84.52;101160.38;5275089;28;20482;-74
2023/07/21 00:06:43;;;;;;;4.63;4.00;;;;;;;17.94;84.61;101162.97;5277790;28;20094;-76
2023/07/21 00:09:14;;;;;;;9.57;5.43;;;;;;;17.74;85.59;101163.72;5279122;28;20012;-75
2023/07/21 00:11:46;;;;;;;5.53;4.33;;;;;;;17.73;85.46;101161.19;5278831;28;20099;-76
2023/07/21 00:14:17;;;;;;;8.63;4.83;;;;;;;17.38;88.24;101161.41;5279676;28;20031;-74
2023/07/21 00:16:53;;;;;;;5.07;4.57;;;;;;;17.78;85.36;101151.03;5279453;28;20017;-76
2023/07/21 00:19:24;;;;;;;6.77;5.13;;;;;;;17.90;84.77;101163.22;5279829;28;20390;-76
2023/07/21 00:21:55;;;;;;;7.83;4.90;;;;;;;17.73;85.60;101148.75;5278928;28;20028;-75
2023/07/21 00:24:27;;;;;;;5.70;4.33;;;;;;;17.73;85.78;101151.41;5279630;28;20023;-76
2023/07/21 00:26:58;;;;;;;4.60;4.20;;;;;;;17.57;87.20;101148.41;5260214;28;20107;-76
2023/07/21 00:29:31;;;;;;;5.83;5.20;;;;;;;17.28;89.21;101142.81;5279466;28;20387;-75
2023/07/21 00:32:03;;;;;;;5.63;5.07;;;;;;;17.54;87.84;101145.06;5260474;28;20023;-74
2023/07/21 00:34:35;;;;;;;5.33;4.83;;;;;;;17.11;91.12;101143.38;5279387;28;20024;-76
2023/07/21 00:37:06;;;;;;;7.70;5.13;;;;;;;17.60;87.08;101140.19;5261013;28;20024;-75
2023/07/21 00:39:39;;;;;;;9.67;4.83;;;;;;;17.23;89.54;101138.84;5261277;28;20134;-75
2023/07/21 00:42:13;;;;;;;5.33;4.13;;;;;;;17.51;88.92;101141.81;5264076;28;20051;-75
2023/07/21 00:44:44;;;;;;;15.03;5.10;;;;;;;17.42;88.70;101131.06;5278603;28;20028;-75
2023/07/21 00:47:16;;;;;;;5.50;4.67;;;;;;;17.53;87.75;101126.66;5278850;28;20031;-76
2023/07/21 00:49:47;;;;;;;5.97;4.63;;;;;;;17.27;90.16;101130.56;5278624;28;20027;-74
2023/07/21 00:52:19;;;;;;;6.77;4.80;;;;;;;17.56;87.74;101134.31;5260182;28;20078;-76
2023/07/21 00:54:51;;;;;;;5.33;4.83;;;;;;;17.48;88.64;101131.50;5278957;28;20028;-77
2023/07/21 00:57:23;;;;;;;6.13;4.77;;;;;;;17.41;88.50;101126.75;5277373;28;20044;-76
2023/07/21 00:59:55;;;;;;;6.67;4.80;;;;;;;17.45;88.24;101127.31;5260959;28;20028;-75
2023/07/21 01:02:27;;;;;;;6.17;4.80;;;;;;;17.47;87.49;101125.34;5278234;28;20379;-76
2023/07/21 01:05:01;;;;;;;6.40;5.20;;;;;;;17.40;88.43;101130.34;5279049;28;20032;-76
2023/07/21 01:07:33;;;;;;;8.85;6.30;;;;;;;17.21;89.49;101119.66;5260227;28;20052;-76
2023/07/21 01:10:05;;;;;;;7.43;5.07;;;;;;;17.35;88.87;101121.13;5278637;28;20410;-75
2023/07/21 01:12:37;;;;;;;6.40;5.20;;;;;;;17.36;89.41;101118.34;5320311;22;20059;-76
2023/07/21 01:15:09;;;;;;;5.90;5.30;;;;;;;17.38;88.22;101116.41;5297881;28;20024;-76
2023/07/21 01:17:41;;;;;;;6.53;5.63;;;;;;;16.86;92.03;101100.41;5298138;28;20039;-75
2023/07/21 01:20:15;;;;;;;5.37;4.87;;;;;;;16.99;91.36;101098.44;5294938;28;20107;-75
2023/07/21 01:22:52;;;;;;;6.93;5.75;;;;;;;17.00;92.13;101097.44;5292391;28;20061;-75
2023/07/21 01:25:23;;;;;;;8.80;5.57;;;;;;;17.21;88.85;101099.28;5280583;28;20030;-76
2023/07/21 01:27:55;;;;;;;6.67;5.50;;;;;;;17.17;89.43;101104.00;5298326;28;20031;-76
2023/07/21 01:30:28;;;;;;;5.63;5.13;;;;;;;17.24;88.62;101103.50;5299266;28;20031;-73
2023/07/21 01:33:01;;;;;;;5.27;4.80;;;;;;;17.10;89.14;101097.56;5284560;28;20104;-75
2023/07/21 01:35:33;;;;;;;6.90;5.00;;;;;;;17.11;88.99;101090.44;5299304;28;20023;-76
2023/07/21 01:38:05;;;;;;;5.73;5.03;;;;;;;17.13;89.32;101096.47;5298750;28;20552;-75
2023/07/21 01:40:39;;;;;;;5.83;5.00;;;;;;;16.99;90.97;101093.13;5299127;28;20099;-75
2023/07/21 01:43:11;;;;;;;5.60;5.10;;;;;;;16.92;90.97;101089.31;5283284;28;20028;-75
2023/07/21 01:45:43;;;;;;;9.23;5.60;;;;;;;16.59;93.63;101089.34;5298538;28;20078;-76
2023/07/21 01:48:14;;;;;;;7.40;5.73;;;;;;;16.82;91.49;101083.97;5298550;28;20039;-75
2023/07/21 01:50:47;;;;;;;7.67;5.50;;;;;;;16.30;95.17;101089.91;5298858;28;20031;-76
2023/07/21 01:53:23;;;;;;;6.07;5.33;;;;;;;16.37;96.10;101085.78;5298336;28;20027;-76
2023/07/21 01:56:04;;;;;;;5.77;5.17;;;;;;;16.33;96.81;101085.22;5280216;28;20519;-74
2023/07/21 01:58:37;;;;;;;6.60;4.73;;;;;;;16.59;93.90;101084.06;5297742;28;20022;-76
2023/07/21 02:01:11;;;;;;;6.80;5.30;;;;;;;16.56;94.64;101084.31;5298179;28;20487;-76
2023/07/21 02:03:45;;;;;;;6.20;5.60;;;;;;;16.69;92.12;101074.41;5298504;28;20023;-76
2023/07/21 02:06:17;;;;;;;6.72;5.53;;;;;;;16.62;93.02;101072.38;5297586;28;20297;-75
2023/07/21 02:08:48;;;;;;;9.07;5.60;;;;;;;16.67;92.93;101072.84;5298627;28;20028;-75
2023/07/21 02:11:20;;;;;;;6.50;5.23;;;;;;;16.76;91.85;101063.31;5289683;28;20794;-76
2023/07/21 02:13:51;;;;;;;6.87;5.23;;;;;;;16.72;91.78;101072.47;5291812;28;20123;-76
2023/07/21 02:16:22;;;;;;;6.00;5.40;;;;;;;16.48;93.20;101055.03;5298362;28;20027;-75
2023/07/21 02:18:55;;;;;;;8.67;6.20;;;;;;;16.42;94.91;101073.03;5297503;28;20489;-73
2023/07/21 02:21:26;;;;;;;5.87;5.30;;;;;;;16.51;93.44;101071.44;5298185;28;20008;-75
2023/07/21 02:23:57;;;;;;;6.80;6.10;;;;;;;16.44;94.14;101070.28;5297870;28;20023;-76
2023/07/21 02:26:29;;;;;;;8.13;4.90;;;;;;;16.55;92.98;101072.03;5303706;28;20083;-74
2023/07/21 02:29:00;;;;;;;5.63;4.77;;;;;;;16.68;91.63;101062.16;5304517;28;20039;-75
2023/07/21 02:31:31;;;;;;;6.40;4.93;;;;;;;16.45;93.90;101070.16;5299089;28;20035;-75
2023/07/21 02:34:04;;;;;;;6.47;5.70;;;;;;;16.63;91.79;101074.06;5297730;28;20073;-75
2023/07/21 02:36:35;;;;;;;6.53;5.27;;;;;;;16.37;93.82;101062.00;5298132;28;20043;-76
2023/07/21 02:39:07;;;;;;;8.77;5.60;;;;;;;16.52;92.29;101067.00;5297543;28;20526;-76
2023/07/21 02:41:38;;;;;;;7.90;5.37;;;;;;;16.52;92.58;101067.00;5296625;28;20051;-74
2023/07/21 02:44:09;;;;;;;6.13;5.37;;;;;;;16.52;92.45;101057.28;5297493;28;20104;-74
2023/07/21 02:46:41;;;;;;;7.37;6.30;;;;;;;15.88;96.43;101062.34;5297530;28;20060;-75
2023/07/21 02:49:12;;;;;;;6.40;5.80;;;;;;;16.15;95.36;101061.09;5297414;28;20026;-75
2023/07/21 02:51:44;;;;;;;5.90;5.03;;;;;;;16.38;93.18;101061.06;5297658;28;20024;-76
2023/07/21 02:54:15;;;;;;;9.50;6.43;;;;;;;16.28;94.24;101049.56;5296773;28;20022;-74
2023/07/21 02:56:46;;;;;;;8.40;5.90;;;;;;;16.33;94.01;101053.50;5296782;28;20474;-75
2023/07/21 02:59:18;;;;;;;7.20;6.50;;;;;;;16.13;95.24;101057.75;5297666;28;20028;-76
2023/07/21 03:01:54;;;;;;;6.40;5.27;;;;;;;16.25;94.51;101052.44;5289612;28;20830;-76
2023/07/21 03:04:26;;;;;;;8.90;6.10;;;;;;;16.30;93.30;101053.72;5286944;28;20035;-75
2023/07/21 03:06:58;;;;;;;6.63;5.93;;;;;;;16.06;94.95;101051.28;5293313;28;20027;-76
2023/07/21 03:09:29;;;;;;;6.83;6.13;;;;;;;16.30;93.18;101055.56;5297024;28;20020;-75
2023/07/21 03:12:00;;;;;;;6.80;6.10;;;;;;;16.11;95.12;101059.66;5277305;28;20024;-74
2023/07/21 03:14:32;;;;;;;6.37;5.77;;;;;;;16.06;94.84;101056.56;5297635;28;20042;-75
2023/07/21 03:17:03;;;;;;;6.13;5.60;;;;;;;16.09;94.64;101057.16;5296047;28;20035;-75
2023/07/21 03:19:35;;;;;;;6.70;5.73;;;;;;;15.64;97.38;101049.25;5297544;28;20051;-76
2023/07/21 03:22:06;;;;;;;10.90;6.37;;;;;;;15.99;94.92;101056.22;5296602;28;20027;-76
2023/07/21 03:24:39;;;;;;;7.07;5.97;;;;;;;15.98;95.11;101049.22;5296779;28;20597;-75
2023/07/21 03:27:12;;;;;;;6.80;6.13;;;;;;;15.99;95.39;101047.44;5295814;28;20035;-75
2023/07/21 03:29:46;;;;;;;7.50;6.37;;;;;;;15.97;95.86;101058.09;5295993;28;20032;-73
2023/07/21 03:32:17;;;;;;;7.75;5.55;;;;;;;15.95;95.48;101063.50;5278661;28;20046;-74
2023/07/21 03:34:49;;;;;;;7.27;6.10;;;;;;;15.86;95.86;101053.69;5296822;28;20539;-76
2023/07/21 03:37:25;;;;;;;7.13;6.40;;;;;;;15.83;97.17;101061.88;5292430;28;20063;-74
2023/07/21 03:39:57;;;;;;;10.10;6.43;;;;;;;15.63;97.72;101050.22;5296392;28;20386;-76
2023/07/21 03:42:28;;;;;;;6.80;6.10;;;;;;;15.79;96.64;101052.50;5295602;28;20443;-75
2023/07/21 03:45:09;;;;;;;8.80;6.23;;;;;;;15.81;95.93;101047.94;5296251;28;20106;-73
2023/07/21 03:47:40;;;;;;;7.03;6.33;;;;;;;15.75;96.05;101054.53;5296887;28;20494;-73
2023/07/21 03:50:12;;;;;;;7.97;6.20;;;;;;;15.81;95.06;101048.75;5282338;28;20058;-73
2023/07/21 03:52:43;;;;;;;7.60;6.10;;;;;;;15.80;95.35;101046.22;5296359;28;20016;-73
2023/07/21 03:55:14;;;;;;;6.27;5.50;;;;;;;15.83;94.99;101051.31;5296543;28;20127;-73
2023/07/21 03:57:46;;;;;;;7.13;5.73;;;;;;;15.75;95.94;101057.16;5294872;28;20028;-73
2023/07/21 04:00:17;;;;;;;10.53;7.10;;;;;;;15.63;96.73;101053.69;5297885;28;20032;-73
2023/07/21 04:02:48;;;;;;;8.53;6.67;;;;;;;15.64;96.73;101052.72;5307032;28;20101;-73
2023/07/21 04:05:20;;;;;;;8.23;7.00;;;;;;;15.20;100.00;101052.59;5297741;28;20107;-72
2023/07/21 04:07:51;;;;;;;8.17;6.33;;;;;;;15.53;97.71;101040.38;5306336;28;20028;-73
2023/07/21 04:10:22;;;;;;;8.43;6.80;;;;;;;15.56;97.85;101047.22;5296183;28;20497;-73
2023/07/21 04:12:54;;;;;;;9.50;7.20;;;;;;;15.26;100.00;101045.97;5295472;28;20475;-73
2023/07/21 04:15:26;;;;;;;7.70;6.63;;;;;;;15.43;99.16;101040.25;5295571;28;20028;-73
2023/07/21 04:17:57;;;;;;;7.63;6.93;;;;;;;15.53;98.07;101034.25;5296870;28;20018;-73
2023/07/21 04:20:29;;;;;;;7.80;7.10;;;;;;;15.55;97.95;101027.88;5296186;28;20387;-73
2023/07/21 04:23:00;;;;;;;9.87;6.73;;;;;;;15.54;98.04;101033.28;5295607;28;20051;-73
2023/07/21 04:25:32;;;;;;;11.40;8.87;;;;;;;15.52;98.33;101028.13;5284925;28;20025;-73
2023/07/21 04:28:05;;;;;;;10.37;9.20;;;;;;;15.61;97.61;101029.22;5292847;28;20093;-73
2023/07/21 04:30:36;;;;;;;12.23;9.80;;;;;;;15.62;97.60;101025.63;5296794;28;20101;-73
2023/07/21 04:33:08;;;;;;;14.83;10.83;;;;;;;15.38;100.00;101025.75;5290210;28;20021;-74
2023/07/21 04:35:48;;;;;;;19.30;11.63;;;;;;;15.69;98.46;101032.09;5286408;28;20020;-73
2023/07/21 04:38:20;;;;;;;17.60;12.40;;;;;;;15.54;99.16;101028.84;5295409;28;20647;-73
2023/07/21 04:40:52;;;;;;;15.33;12.00;;;;;;;15.55;99.26;101030.53;5295365;28;20103;-73
2023/07/21 04:43:23;;;;;;;15.67;11.90;;;;;;;15.42;100.00;101030.66;5290260;28;20112;-73
2023/07/21 04:45:55;;;;;;;15.13;11.73;;;;;;;15.59;99.55;101026.69;5286111;28;20111;-73
2023/07/21 04:48:26;;;;;;;14.53;11.00;;;;;;;15.35;100.00;101029.44;5277967;28;20466;-73
2023/07/21 04:50:58;;;;;;;11.60;9.97;;;;;;;15.29;100.00;101014.09;5295516;28;20047;-73
2023/07/21 04:53:30;;;;;;;12.63;9.83;;;;;;;15.22;100.00;101030.38;5295351;28;20028;-73
2023/07/21 04:56:02;;;;;;;14.33;11.03;;;;;;;15.26;100.00;101019.59;5288245;28;20381;-73
2023/07/21 04:58:33;;;;;;;16.13;11.17;;;;;;;15.28;100.00;101025.59;5299895;28;20020;-72
2023/07/21 05:01:04;;;;;;;13.63;10.87;;;;;;;15.56;100.00;101018.19;5299514;28;20162;-73
2023/07/21 05:03:35;;;;;;;16.67;10.60;;;;;;;15.66;100.00;101024.41;5299817;28;20028;-73
2023/07/21 05:06:09;;;;;;;13.90;10.47;;;;;;;15.78;100.00;101016.50;5299777;28;20028;-73
2023/07/21 05:08:40;;;;;;;14.18;9.93;;;;;;;15.83;100.00;101023.06;5299490;28;20024;-74
2023/07/21 05:11:12;;;;;;;14.93;9.83;;;;;;;15.87;100.00;101010.47;5298705;28;20501;-73
2023/07/21 05:13:45;;;;;;;14.80;9.67;;;;;;;15.93;100.00;101017.06;5298154;28;20573;-73
2023/07/21 05:16:16;;;;;;;14.00;10.63;;;;;;;15.88;100.00;100998.94;5299364;28;20024;-73
2023/07/21 05:18:47;;;;;;;12.37;10.27;;;;;;;15.90;100.00;101017.31;5299194;28;20485;-73
2023/07/21 05:21:19;;;;;;;13.80;11.50;;;;;;;15.98;100.00;101001.69;5299596;28;20030;-74
2023/07/21 05:23:50;;;;;;;13.73;10.17;;;;;;;16.05;100.00;101007.34;5287616;28;20052;-73
2023/07/21 05:26:21;;;;;;;14.13;12.53;;;;;;;15.89;100.00;101011.19;5281158;28;20028;-73
2023/07/21 05:28:54;;;;;;;13.20;11.80;;;;;;;15.95;100.00;101007.22;5281548;28;20027;-73
2023/07/21 05:31:25;;;;;;;11.70;10.10;;;;;;;16.13;100.00;101015.47;5298590;28;20031;-73
2023/07/21 05:33:57;;;;;;;15.63;11.77;;;;;;;16.23;100.00;101020.03;5281220;28;20024;-73
2023/07/21 05:36:28;;;;;;;12.10;10.83;;;;;;;16.17;100.00;101010.78;5298129;28;20023;-73
2023/07/21 05:39:00;;;;;;;12.53;10.30;;;;;;;16.29;100.00;101019.50;5298841;28;20038;-73
2023/07/21 05:41:31;;;;;;;11.43;10.43;;;;;;;16.36;100.00;101020.69;5279684;28;20087;-73
2023/07/21 05:44:02;;;;;;;12.30;11.17;;;;;;;16.42;100.00;101017.53;5298890;28;20047;-74
2023/07/21 05:46:34;;;;;;;12.63;11.33;;;;;;;16.52;100.00;101015.00;5298960;28;20028;-73
2023/07/21 05:49:06;;;;;;;13.13;11.20;;;;;;;16.57;100.00;101014.59;5298110;28;20032;-73
2023/07/21 05:51:37;;;;;;;11.10;9.97;;;;;;;16.62;100.00;101015.06;5299392;28;20024;-73
2023/07/21 05:54:08;;;;;;;11.83;10.63;;;;;;;16.69;100.00;101018.88;5298442;28;20083;-73
2023/07/21 05:56:40;;;;;;;11.43;10.37;;;;;;;16.75;99.87;101024.59;5298087;28;20449;-73
2023/07/21 05:59:11;;;;;;;11.17;10.10;;;;;;;16.79;99.78;101026.84;5298820;28;20072;-72
2023/07/21 06:01:43;;;;;;;12.13;10.37;;;;;;;16.81;100.00;101024.09;5298265;28;20485;-73
2023/07/21 06:04:14;;;;;;;11.20;9.80;;;;;;;16.89;99.62;101024.31;5305329;28;20039;-74
2023/07/21 06:06:45;;;;;;;12.13;10.93;;;;;;;16.96;98.65;101031.72;5303680;28;20032;-74
2023/07/21 06:09:17;;;;;;;10.90;9.80;;;;;;;16.98;98.36;101030.63;5306651;28;20028;-73
2023/07/21 06:11:48;;;;;;;12.23;11.10;;;;;;;17.00;97.26;101031.31;5298553;28;20099;-74
2023/07/21 06:14:20;;;;;;;12.73;11.53;;;;;;;17.00;97.28;101030.50;5297891;28;20044;-74
2023/07/21 06:16:51;;;;;;;13.40;10.77;;;;;;;17.15;96.22;101023.94;5298188;28;20028;-74
2023/07/21 06:19:23;;;;;;;13.87;11.33;;;;;;;17.09;97.06;101021.75;5298081;28;20028;-73
2023/07/21 06:21:55;;;;;;;13.43;12.13;;;;;;;17.17;96.46;101026.44;5298161;28;20047;-74
2023/07/21 06:24:26;;;;;;;12.47;11.27;;;;;;;17.23;97.15;101022.41;5310472;28;20036;-72
2023/07/21 06:26:58;;;;;;;15.07;12.37;;;;;;;17.27;97.75;101021.19;5297010;28;20067;-73
2023/07/21 06:29:30;;;;;;;13.17;11.83;;;;;;;17.32;97.08;101016.31;5297926;28;20031;-73
2023/07/21 06:32:01;;;;;;;13.43;12.23;;;;;;;17.41;96.24;101020.84;5297563;28;20020;-74
2023/07/21 06:34:32;;;;;;;14.20;12.70;;;;;;;17.55;95.07;101026.75;5298290;28;20024;-73
2023/07/21 06:37:04;;;;;;;14.43;12.37;;;;;;;17.55;96.48;101024.09;5279092;28;20020;-74
2023/07/21 06:39:35;;;;;;;12.17;11.17;;;;;;;17.68;94.77;101021.19;5297758;28;20481;-74
2023/07/21 06:42:10;;;;;;;13.63;12.23;;;;;;;17.78;94.46;101021.25;5296397;28;20074;-74
2023/07/21 06:44:41;;;;;;;;;;;;;;;18.23;92.25;101019.97;5298122;28;20081;-74
2023/07/21 06:47:14;;;;;;;12.17;10.97;;;;;;;17.89;93.50;101010.53;5296856;28;19912;-74
2023/07/21 06:49:45;;;;;;;14.97;12.17;;;;;;;17.93;95.36;101007.59;5279590;28;20024;-73
2023/07/21 06:52:16;;;;;;;14.03;11.80;;;;;;;18.04;92.46;101020.75;5297656;28;20043;-74
2023/07/21 06:54:48;;;;;;;15.93;12.97;;;;;;;18.03;92.38;101016.41;5297332;28;20039;-74
2023/07/21 06:57:19;;;;;;;13.70;12.40;;;;;;;18.16;91.08;101017.97;5296651;28;20051;-74
2023/07/21 06:59:50;;;;;;;13.13;11.80;;;;;;;18.23;91.52;101024.41;5297037;28;20035;-73
2023/07/21 07:02:22;;;;;;;13.40;11.80;;;;;;;18.32;90.43;101018.28;5307990;28;20020;-74
2023/07/21 07:04:53;;;;;;;13.00;11.40;;;;;;;18.40;90.16;101014.13;5297044;28;20043;-73
2023/07/21 07:07:24;;;;;;;13.93;11.23;;;;;;;18.56;89.57;101022.31;5309430;28;20024;-73
2023/07/21 07:09:56;;;;;;;11.53;10.13;;;;;;;18.60;87.95;101006.97;5297539;28;20070;-74
2023/07/21 07:12:27;;;;;;;13.53;11.80;;;;;;;18.70;86.79;101014.91;5265966;28;20073;-74
2023/07/21 07:14:58;;;;;;;12.83;11.47;;;;;;;18.67;87.52;101013.38;5252737;28;20033;-74
2023/07/21 07:17:30;;;;;;;12.30;11.00;;;;;;;18.91;86.54;101008.59;5255004;28;20162;-74
2023/07/21 07:20:01;;;;;;;12.90;11.60;;;;;;;19.04;89.62;101006.44;5255426;28;20036;-74
2023/07/21 07:22:32;;;;;;;13.93;12.53;;;;;;;19.15;89.12;101004.66;5261735;28;20074;-74
2023/07/21 07:25:04;;;;;;;13.23;11.97;;;;;;;19.37;86.56;101002.59;5237927;28;20379;-74
2023/07/21 07:27:35;;;;;;;15.93;11.57;;;;;;;19.80;83.05;100994.97;5255389;28;20033;-73
2023/07/21 07:30:07;;;;;;;15.17;13.57;;;;;;;20.39;80.58;100999.03;5254773;28;20024;-74
2023/07/21 07:32:38;;;;;;;15.43;13.90;;;;;;;20.67;76.21;101001.59;5254839;28;20075;-74
2023/07/21 07:35:10;;;;;;;19.73;16.50;;;;;;;21.07;75.19;101001.22;5254584;28;20098;-74
2023/07/21 07:37:42;;;;;;;16.93;15.00;;;;;;;21.61;71.08;101008.09;5255220;28;20035;-74
2023/07/21 07:40:13;;;;;;;15.55;13.80;;;;;;;21.79;68.17;101004.50;5253818;28;20429;-75
2023/07/21 07:42:46;;;;;;;14.75;13.32;;;;;;;21.95;65.68;101004.56;5255085;28;20059;-75
2023/07/21 07:45:17;;;;;;;16.88;12.60;;;;;;;22.32;64.37;101009.63;5254553;28;20017;-74
2023/07/21 07:47:50;;;;;;;15.13;10.98;;;;;;;22.50;61.78;101011.28;5260007;28;20455;-73
2023/07/21 07:50:21;;;;;;;10.82;9.73;;;;;;;22.60;61.80;101009.28;5254655;28;20103;-71
2023/07/21 07:52:52;;;;;;;9.63;8.77;;;;;;;22.78;63.38;101017.13;5254996;28;20076;-72
2023/07/21 07:55:25;;;;;;;10.38;9.40;;;;;;;22.85;59.27;101014.59;5253918;28;20972;-73
2023/07/21 07:57:56;;;;;;;10.52;9.07;;;;;;;22.87;58.34;101014.41;5256714;28;20489;-72
2023/07/21 08:00:28;;;;;;;9.15;8.35;;;;;;;23.06;58.93;101015.88;5254392;28;20124;-72
2023/07/21 08:02:59;;;;;;;11.63;8.15;;;;;;;22.95;58.29;101009.09;5253362;28;20086;-72
2023/07/21 08:05:39;;;;;;;10.32;8.95;;;;;;;23.26;57.79;101016.34;5255874;28;20029;-73
2023/07/21 08:08:10;;;;;;;11.35;8.80;;;;;;;23.22;55.89;101012.34;5256806;28;20063;-72
2023/07/21 08:10:41;;;;;;;10.50;9.50;;;;;;;23.26;56.15;101015.50;5264114;28;20021;-72
2023/07/21 08:13:14;;;;;;;14.20;10.30;;;;;;;23.25;55.71;101003.97;5269006;28;20048;-72
2023/07/21 08:15:45;;;;;;;10.73;9.63;;;;;;;22.87;57.25;101001.06;5276918;28;20454;-72
2023/07/21 08:18:16;;;;;;;10.93;9.25;;;;;;;23.38;55.99;100997.25;5283569;28;20095;-72
2023/07/21 08:20:50;;;;;;;11.70;10.60;;;;;;;23.71;54.43;100999.78;5284522;28;20032;-72
2023/07/21 08:23:21;;;;;;;15.85;10.10;;;;;;;23.81;54.01;101002.22;5283290;28;20078;-72
2023/07/21 08:25:53;;;;;;;12.30;10.05;;;;;;;23.95;52.95;101007.84;5281633;28;20028;-72
2023/07/21 08:28:24;;;;;;;10.57;9.57;;;;;;;23.81;50.88;100999.56;5287363;28;20032;-72
2023/07/21 08:30:55;;;;;;;11.57;10.18;;;;;;;23.39;51.85;100997.06;5281002;28;20028;-72
2023/07/21 08:33:27;;;;;;;12.15;10.95;;;;;;;23.47;52.56;101004.25;5280799;28;20079;-72
2023/07/21 08:35:58;;;;;;;10.23;9.23;;;;;;;23.70;53.71;101006.16;5283995;28;20024;-73
2023/07/21 08:38:29;;;;;;;11.60;10.02;;;;;;;23.92;50.33;101007.19;5279578;28;20095;-72
2023/07/21 08:41:07;;;;;;;10.35;9.35;;;;;;;24.09;50.97;101001.72;5282367;28;20025;-73
2023/07/21 08:43:39;;;;;;;14.48;10.98;;;;;;;24.01;50.77;101001.78;5269281;28;20039;-73
2023/07/21 08:46:10;;;;;;;15.68;10.85;;;;;;;24.16;53.58;101001.84;5265127;28;20037;-73
2023/07/21 08:48:42;;;;;;;13.65;12.00;;;;;;;24.33;51.13;101007.91;5275036;28;20096;-73
2023/07/21 08:51:13;;;;;;;12.15;10.48;;;;;;;24.49;51.37;101011.50;5271698;28;20012;-73
2023/07/21 08:53:45;;;;;;;11.93;10.73;;;;;;;24.26;50.38;100993.63;5271823;28;20032;-77
2023/07/21 08:56:17;;;;;;;14.90;12.05;;;;;;;24.15;50.15;101001.03;5280409;28;20032;-72
2023/07/21 08:58:48;;;;;;;14.30;11.30;;;;;;;24.08;49.79;101008.09;5274674;28;20430;-72
2023/07/21 09:01:19;;;;;;;11.35;10.15;;;;;;;23.80;51.67;101013.94;5278580;28;20032;-74
2023/07/21 09:03:51;;;;;;;13.98;9.50;;;;;;;23.89;50.66;100996.00;5283475;28;20369;-71
2023/07/21 09:06:22;;;;;;;11.43;10.32;;;;;;;24.01;49.07;101007.13;5287848;28;20152;-72
2023/07/21 09:08:54;;;;;;;10.35;9.35;;;;;;;24.08;48.79;101012.59;5292642;28;20537;-70
2023/07/21 09:11:26;;;;;;;9.68;8.68;;;;;;;24.05;50.74;101014.63;5278632;28;20020;-71
2023/07/21 09:13:57;;;;;;;12.02;10.70;;;;;;;24.32;47.26;101000.91;5278525;28;20493;-72
2023/07/21 09:16:32;;;;;;;10.93;9.90;;;;;;;24.23;49.26;101010.84;5275141;28;20024;-72
2023/07/21 09:19:05;;;;;;;10.65;9.52;;;;;;;23.86;48.30;101005.22;5275914;28;20024;-73
2023/07/21 09:21:37;;;;;;;13.50;12.20;;;;;;;23.97;48.21;101011.16;5278398;28;20027;-70
2023/07/21 09:24:11;;;;;;;13.43;12.13;;;;;;;23.99;49.03;101012.66;5278489;28;20096;-71
2023/07/21 09:26:42;;;;;;;13.23;11.88;;;;;;;24.07;50.31;101009.09;5277869;28;20491;-72
2023/07/21 09:29:19;;;;;;;14.50;12.27;;;;;;;25.32;47.57;100996.41;5278257;28;20059;-73
2023/07/21 09:31:51;;;;;;;13.95;12.65;;;;;;;25.55;46.14;100992.75;5278314;28;20103;-73
2023/07/21 09:34:22;;;;;;;14.80;13.30;;;;;;;26.84;43.23;100992.09;5279072;28;20725;-73
2023/07/21 09:36:53;;;;;;;17.33;15.00;;;;;;;26.66;43.79;100985.34;5278672;28;20112;-73
2023/07/21 09:39:24;;;;;;;17.98;13.55;;;;;;;27.73;42.06;100998.72;5277311;28;20028;-73
2023/07/21 09:41:56;;;;;;;15.27;13.77;;;;;;;28.18;40.12;100994.63;5277259;28;20134;-72
2023/07/21 09:44:27;;;;;;;14.52;12.93;;;;;;;28.23;37.96;100986.75;5277822;28;20501;-73
2023/07/21 09:46:59;;;;;;;14.15;12.55;;;;;;;27.95;38.01;100979.69;5286070;28;20111;-74
2023/07/21 09:49:30;;;;;;;11.50;10.38;;;;;;;27.85;37.88;100977.41;5266130;28;20029;-72
2023/07/21 09:52:02;;;;;;;14.85;12.30;;;;;;;27.32;38.83;100970.84;5269098;28;20544;-72
2023/07/21 09:54:34;;;;;;;14.85;13.48;;;;;;;27.46;38.80;100977.91;5270479;28;20096;-73
2023/07/21 09:57:09;;;;;;;12.40;11.10;;;;;;;27.58;38.20;100980.03;5271167;28;20112;-74
2023/07/21 09:59:44;;;;;;;14.45;13.02;;;;;;;28.09;38.12;100975.16;5278737;28;20119;-85
2023/07/21 10:02:16;;;;;;;13.82;12.52;;;;;;;27.63;37.63;100980.25;5287544;28;20031;-73
2023/07/21 10:04:48;;;;;;;13.30;11.95;;;;;;;27.40;39.07;100978.72;5273830;28;20111;-72
2023/07/21 10:07:19;;;;;;;12.52;11.23;;;;;;;26.91;37.73;100979.53;5276622;28;20611;-75
2023/07/21 10:09:51;;;;;;;10.40;9.38;;;;;;;26.99;38.28;100983.88;5268976;28;20028;-72
2023/07/21 10:12:22;;;;;;;13.27;11.98;;;;;;;26.62;38.86;100988.63;5280128;28;20119;-72
2023/07/21 10:14:54;;;;;;;13.57;12.15;;;;;;;25.96;42.08;100991.34;5297557;28;20036;-74
2023/07/21 10:17:25;;;;;;;13.00;11.55;;;;;;;26.09;41.59;100986.09;5292651;28;20051;-79
2023/07/21 10:20:06;;;;;;;10.15;9.13;;;;;;;25.97;43.89;100987.66;5302797;28;20024;-74
2023/07/21 10:22:38;;;;;;;11.27;10.18;;;;;;;25.30;52.72;100988.56;5298145;28;20648;-76
2023/07/21 10:25:10;;;;;;;14.07;11.70;;;;;;;25.32;51.44;100988.38;5287800;28;20039;-78
2023/07/21 10:27:41;;;;;;;15.00;13.48;;;;;;;25.13;56.07;100986.06;5277781;28;20064;-77
2023/07/21 10:30:22;;;;;;;16.52;15.00;;;;;;;24.94;56.94;100990.16;5302222;28;20039;-73
2023/07/21 10:32:53;;;;;;;17.35;15.70;;;;;;;24.22;73.77;100995.81;5293824;28;20027;-76
2023/07/21 10:35:51;;;;;;;16.10;14.57;;;;;;;24.73;62.73;101005.03;5306072;28;20024;-76
2023/07/21 10:38:24;;;;;;;19.38;17.45;;;;;;;24.04;64.95;101002.25;5294211;28;20040;-82
2023/07/21 10:40:55;;;;;;;20.55;17.25;;;;;;;23.60;71.43;101019.72;5277265;28;20114;-73
2023/07/21 10:43:26;;;;;;;23.65;19.38;;;;;;;23.70;81.53;101030.22;5300723;28;20106;-71
2023/07/21 10:45:57;;;;;;;19.48;11.27;;;;;;;23.44;76.95;101020.66;5305347;28;20056;-71
2023/07/21 10:48:30;;;;;;;10.15;6.10;;;;;;;23.05;86.45;101014.22;5303075;28;20028;-71
2023/07/21 10:51:02;;;;;;;9.27;5.78;;;;;;;22.77;93.98;101025.28;5304552;28;20077;-78
2023/07/21 10:53:33;;;;;;;9.07;4.82;;;;;;;21.82;91.34;101020.22;5307663;28;20429;-74
2023/07/21 10:56:07;;;;;;;7.63;5.80;;;;;;;22.24;96.58;101019.28;5296788;28;20039;-74
2023/07/21 10:58:38;;;;;;;7.38;6.50;;;;;;;21.71;96.71;101029.31;5281967;28;20035;-73
2023/07/21 11:01:10;;;;;;;9.82;8.25;;;;;;;21.63;95.55;101032.75;5306771;28;20553;-73
2023/07/21 11:03:42;;;;;;;13.82;12.32;;;;;;;22.00;86.47;101034.25;5297773;28;20028;-74
2023/07/21 11:06:15;;;;;;;15.75;9.98;;;;;;;21.77;86.94;101033.97;5300493;28;20036;-75
2023/07/21 11:08:46;;;;;;;10.35;8.65;;;;;;;21.70;86.12;101036.47;5307778;28;20106;-77
2023/07/21 11:11:17;;;;;;;11.57;8.05;;;;;;;21.78;84.61;101043.66;5308531;28;20077;-73
2023/07/21 11:13:49;;;;;;;11.43;10.30;;;;;;;21.28;99.95;101040.75;5275099;28;20446;-75
2023/07/21 11:16:20;;;;;;;9.60;8.13;;;;;;;21.36;97.15;101045.31;5300317;28;20110;-76
2023/07/21 11:18:52;;;;;;;9.60;7.57;;;;;;;21.62;92.18;101052.41;5301329;28;20118;-74
2023/07/21 11:21:23;;;;;;;9.77;7.17;;;;;;;21.36;91.43;101046.16;5295083;28;20039;-76
2023/07/21 11:24:01;;;;;;;7.93;7.07;;;;;;;21.49;89.29;101053.69;5292896;28;20028;-75
2023/07/21 11:26:33;;;;;;;7.67;6.77;;;;;;;21.38;90.31;101060.13;5306145;28;20032;-72
2023/07/21 11:29:08;;;;;;;11.83;6.33;;;;;;;21.39;89.53;101058.31;5281331;28;20048;-74
2023/07/21 11:31:40;;;;;;;8.50;7.60;;;;;;;21.00;98.52;101047.09;5297362;28;20028;-73
2023/07/21 11:34:21;;;;;;;11.90;8.07;;;;;;;21.13;100.00;101054.69;5283337;28;20035;-73
2023/07/21 11:36:54;;;;;;;7.57;6.80;;;;;;;21.23;89.78;101048.38;5287819;28;20094;-73
2023/07/21 11:39:27;;;;;;;8.02;7.00;;;;;;;21.35;93.23;101044.47;5291067;28;20043;-73